createdAt,value
2022-11-08T00:00:43.397Z,19.85
2022-11-08T00:03:10.721Z,16.45
2022-11-08T00:05:59.896Z,23.95
2022-11-08T00:08:45.326Z,24.02
2022-11-08T00:11:31.723Z,18.90
2022-11-08T00:14:01.549Z,22.73
2022-11-08T00:16:29.682Z,24.42
2022-11-08T00:18:57.038Z,31.70
2022-11-08T00:21:26.987Z,25.20
2022-11-08T00:23:54.423Z,25.00
2022-11-08T00:26:21.439Z,20.60
2022-11-08T00:28:48.545Z,25.50
2022-11-08T00:31:15.585Z,22.30
2022-11-08T00:33:48.154Z,17.02
2022-11-08T00:36:15.480Z,22.20
2022-11-08T00:38:44.010Z,20.45
2022-11-08T00:41:14.724Z,20.73
2022-11-08T00:43:45.322Z,24.25
2022-11-08T00:46:17.536Z,20.02
2022-11-08T00:48:44.618Z,14.65
2022-11-08T00:51:17.686Z,18.90
2022-11-08T00:53:47.094Z,22.08
2022-11-08T00:56:17.247Z,21.42
2022-11-08T00:58:44.437Z,23.23
2022-11-08T01:01:16.381Z,23.45
2022-11-08T01:03:47.916Z,26.48
2022-11-08T01:06:17.550Z,22.70
2022-11-08T01:08:49.956Z,16.95
2022-11-08T01:11:20.875Z,22.52
2022-11-08T01:13:49.055Z,19.85
2022-11-08T01:16:24.085Z,17.50
2022-11-08T01:18:53.848Z,22.30
2022-11-08T01:21:21.938Z,16.63
2022-11-08T01:23:49.734Z,16.83
2022-11-08T01:26:22.437Z,19.00
2022-11-08T01:28:50.294Z,20.60
2022-11-08T01:31:21.818Z,18.27
2022-11-08T01:33:52.111Z,14.43
2022-11-08T01:36:22.365Z,17.00
2022-11-08T01:38:52.322Z,20.73
2022-11-08T01:41:26.665Z,18.05
2022-11-08T01:43:59.523Z,15.15
2022-11-08T01:46:41.232Z,20.60
2022-11-08T01:49:10.903Z,17.55
2022-11-08T01:51:45.819Z,17.25
2022-11-08T01:54:21.985Z,21.35
2022-11-08T01:56:51.971Z,18.25
2022-11-08T01:59:19.860Z,14.48
2022-11-08T02:01:47.856Z,17.70
2022-11-08T02:04:15.833Z,26.17
2022-11-08T02:06:44.661Z,22.42
2022-11-08T02:09:15.605Z,21.00
2022-11-08T02:11:46.512Z,15.27
2022-11-08T02:14:14.699Z,12.88
2022-11-08T02:16:41.833Z,16.92
2022-11-08T02:19:15.485Z,15.73
2022-11-08T02:24:17.826Z,13.23
2022-11-08T02:26:46.497Z,22.15
2022-11-08T02:29:29.747Z,25.13
2022-11-08T02:31:57.813Z,15.60
2022-11-08T02:34:35.137Z,24.23
2022-11-08T02:37:04.183Z,21.33
2022-11-08T02:39:33.127Z,22.27
2022-11-08T02:42:03.346Z,15.35
2022-11-08T02:44:30.448Z,18.92
2022-11-08T02:46:57.579Z,13.90
2022-11-08T02:49:24.837Z,18.25
2022-11-08T02:51:54.708Z,19.80
2022-11-08T02:54:21.767Z,21.73
2022-11-08T02:56:48.927Z,14.65
2022-11-08T03:02:28.486Z,26.92
2022-11-08T03:05:01.380Z,16.52
2022-11-08T03:07:38.428Z,18.50
2022-11-08T03:10:12.783Z,12.52
2022-11-08T03:12:44.599Z,18.70
2022-11-08T03:15:17.228Z,14.93
2022-11-08T03:17:55.334Z,15.80
2022-11-08T03:20:29.607Z,14.50
2022-11-08T03:23:08.402Z,22.63
2022-11-08T03:25:46.633Z,15.30
2022-11-08T03:28:20.303Z,18.73
2022-11-08T03:30:54.869Z,15.02
2022-11-08T03:33:25.097Z,12.82
2022-11-08T03:35:55.416Z,17.40
2022-11-08T03:38:28.395Z,22.70
2022-11-08T03:41:00.793Z,19.17
2022-11-08T03:43:31.155Z,15.65
2022-11-08T03:46:10.908Z,20.27
2022-11-08T03:48:40.736Z,15.00
2022-11-08T03:51:13.497Z,13.55
2022-11-08T03:53:43.967Z,23.77
2022-11-08T03:56:14.383Z,22.10
2022-11-08T03:58:42.764Z,17.95
2022-11-08T04:01:10.174Z,18.42
2022-11-08T04:03:40.862Z,15.48
2022-11-08T04:06:08.652Z,23.30
2022-11-08T04:08:35.843Z,16.90
2022-11-08T04:11:22.851Z,21.45
2022-11-08T04:14:13.396Z,14.20
2022-11-08T04:16:40.811Z,22.88
2022-11-08T04:19:26.554Z,17.70
2022-11-08T04:21:55.479Z,20.52
2022-11-08T04:24:24.088Z,16.95
2022-11-08T04:26:51.723Z,20.98
2022-11-08T04:29:18.877Z,16.02
2022-11-08T04:31:46.034Z,23.13
2022-11-08T04:34:13.386Z,14.68
2022-11-08T04:36:40.632Z,16.98
2022-11-08T04:39:10.732Z,22.10
2022-11-08T04:41:38.118Z,14.60
2022-11-08T04:44:05.331Z,13.90
2022-11-08T04:46:32.571Z,17.55
2022-11-08T04:49:00.885Z,23.33
2022-11-08T04:51:30.542Z,27.58
2022-11-08T04:54:00.110Z,19.50
2022-11-08T04:56:29.548Z,16.67
2022-11-08T04:58:58.745Z,20.27
2022-11-08T05:04:23.056Z,16.35
2022-11-08T05:06:59.066Z,18.10
2022-11-08T05:09:40.189Z,20.83
2022-11-08T05:12:10.749Z,19.55
2022-11-08T05:14:48.969Z,15.00
2022-11-08T05:17:19.314Z,15.52
2022-11-08T05:20:08.793Z,19.55
2022-11-08T05:23:00.659Z,16.13
2022-11-08T05:25:37.445Z,11.20
2022-11-08T05:28:18.021Z,12.25
2022-11-08T05:30:58.116Z,13.68
2022-11-08T05:33:32.918Z,14.95
2022-11-08T05:36:08.561Z,15.68
2022-11-08T05:38:41.343Z,18.92
2022-11-08T05:41:23.069Z,30.63
2022-11-08T05:44:00.015Z,18.23
2022-11-08T05:46:53.797Z,19.15
2022-11-08T05:49:24.017Z,17.58
2022-11-08T05:51:54.490Z,16.80
2022-11-08T05:54:24.565Z,13.13
2022-11-08T05:56:59.660Z,13.45
2022-11-08T05:59:31.867Z,21.20
2022-11-08T06:02:04.149Z,16.80
2022-11-08T06:04:42.790Z,17.58
2022-11-08T06:07:12.727Z,16.73
2022-11-08T06:09:48.382Z,16.63
2022-11-08T06:12:17.284Z,19.27
2022-11-08T06:14:47.015Z,18.40
2022-11-08T06:17:26.346Z,14.10
2022-11-08T06:19:59.397Z,17.40
2022-11-08T06:22:37.137Z,16.23
2022-11-08T06:25:14.118Z,22.10
2022-11-08T06:27:47.194Z,15.65
2022-11-08T06:30:23.943Z,27.38
2022-11-08T06:32:51.302Z,22.00
2022-11-08T06:35:19.643Z,15.77
2022-11-08T06:37:59.056Z,16.40
2022-11-08T06:40:35.391Z,14.85
2022-11-08T06:43:06.502Z,26.92
2022-11-08T06:45:43.028Z,15.68
2022-11-08T06:48:10.380Z,16.90
2022-11-08T06:50:37.476Z,14.57
2022-11-08T06:53:12.536Z,19.95
2022-11-08T06:55:39.840Z,22.33
2022-11-08T06:58:10.741Z,16.33
2022-11-08T07:00:38.531Z,25.10
2022-11-08T07:03:05.732Z,18.45
2022-11-08T07:05:37.232Z,19.63
2022-11-08T07:08:04.817Z,25.45
2022-11-08T07:10:36.589Z,24.40
2022-11-08T07:13:14.948Z,20.25
2022-11-08T07:15:43.367Z,16.48
2022-11-08T07:18:16.980Z,24.17
2022-11-08T07:20:44.512Z,17.45
2022-11-08T07:23:14.091Z,22.83
2022-11-08T07:25:45.287Z,28.33
2022-11-08T07:28:20.431Z,20.27
2022-11-08T07:30:49.287Z,22.38
2022-11-08T07:33:18.197Z,16.42
2022-11-08T07:35:48.701Z,25.58
2022-11-08T07:38:16.324Z,27.25
2022-11-08T07:40:47.029Z,22.52
2022-11-08T07:43:16.835Z,20.65
2022-11-08T07:45:47.324Z,19.10
2022-11-08T07:48:14.772Z,12.05
2022-11-08T07:50:43.009Z,24.00
2022-11-08T07:53:11.148Z,21.90
2022-11-08T07:55:40.822Z,20.83
2022-11-08T07:58:11.763Z,22.25
2022-11-08T08:00:40.766Z,21.20
2022-11-08T08:03:10.567Z,37.33
2022-11-08T08:05:43.204Z,23.45
2022-11-08T08:08:12.815Z,21.50
2022-11-08T08:10:41.204Z,19.38
2022-11-08T08:13:11.207Z,18.60
2022-11-08T08:15:41.364Z,23.92
2022-11-08T08:18:12.182Z,20.40
2022-11-08T08:20:42.419Z,15.18
2022-11-08T08:23:12.958Z,18.73
2022-11-08T08:25:41.042Z,16.92
2022-11-08T08:28:09.722Z,21.02
2022-11-08T08:30:37.396Z,33.00
2022-11-08T08:33:27.496Z,19.20
2022-11-08T08:35:55.617Z,23.33
2022-11-08T08:38:23.393Z,17.73
2022-11-08T08:40:51.496Z,25.45
2022-11-08T08:43:19.436Z,26.63
2022-11-08T08:45:47.025Z,24.23
2022-11-08T08:48:14.237Z,18.30
2022-11-08T08:50:44.396Z,20.83
2022-11-08T08:53:11.830Z,18.80
2022-11-08T08:55:43.586Z,19.98
2022-11-08T08:58:14.691Z,23.20
2022-11-08T09:03:34.343Z,30.17
2022-11-08T09:06:02.347Z,19.50
2022-11-08T09:08:30.615Z,21.60
2022-11-08T09:11:01.508Z,25.58
2022-11-08T09:13:35.422Z,33.85
2022-11-08T09:16:12.787Z,30.55
2022-11-08T09:18:54.355Z,34.58
2022-11-08T09:21:28.267Z,30.88
2022-11-08T09:24:05.137Z,22.33
2022-11-08T09:26:41.025Z,18.50
2022-11-08T09:29:12.712Z,19.00
2022-11-08T09:31:43.822Z,17.77
2022-11-08T09:34:17.733Z,32.22
2022-11-08T09:36:59.287Z,19.27
2022-11-08T09:39:43.651Z,21.15
2022-11-08T09:42:48.970Z,29.70
2022-11-08T09:45:49.166Z,32.90
2022-11-08T09:48:45.479Z,20.13
2022-11-08T09:51:26.599Z,27.48
2022-11-08T09:54:04.024Z,14.57
2022-11-08T09:56:41.630Z,22.92
2022-11-08T09:59:54.056Z,19.83
2022-11-08T10:02:28.166Z,18.13
2022-11-08T10:05:17.643Z,39.38
2022-11-08T10:08:01.060Z,39.70
2022-11-08T10:10:51.265Z,23.52
2022-11-08T10:13:49.065Z,21.20
2022-11-08T10:16:52.415Z,21.77
2022-11-08T10:19:38.235Z,26.38
2022-11-08T10:22:26.239Z,44.80
2022-11-08T10:25:32.478Z,22.83
2022-11-08T10:28:17.459Z,20.20
2022-11-08T10:31:05.692Z,19.13
2022-11-08T10:34:15.233Z,19.55
2022-11-08T10:36:50.362Z,20.38
2022-11-08T10:39:34.526Z,26.58
2022-11-08T10:42:16.737Z,23.17
2022-11-08T10:44:57.878Z,18.02
2022-11-08T10:47:33.147Z,31.25
2022-11-08T10:50:25.886Z,30.33
2022-11-08T10:53:03.283Z,26.95
2022-11-08T10:55:41.466Z,26.08
2022-11-08T10:58:40.784Z,20.60
2022-11-08T11:01:29.308Z,14.98
2022-11-08T11:04:28.965Z,9.48
2022-11-08T11:07:07.071Z,12.52
2022-11-08T11:09:43.302Z,10.75
2022-11-08T11:12:15.150Z,20.48
2022-11-08T11:14:59.266Z,14.80
2022-11-08T11:17:41.222Z,12.80
2022-11-08T11:20:29.476Z,18.77
2022-11-08T11:23:10.303Z,7.05
2022-11-08T11:25:37.508Z,10.55
2022-11-08T11:28:08.092Z,10.05
2022-11-08T11:30:38.895Z,12.02
2022-11-08T11:33:24.921Z,8.05
2022-11-08T11:36:19.410Z,10.90
2022-11-08T11:39:06.380Z,12.90
2022-11-08T11:42:17.762Z,16.42
2022-11-08T11:45:08.772Z,11.88
2022-11-08T11:47:44.724Z,10.73
2022-11-08T11:50:42.845Z,25.25
2022-11-08T11:53:39.152Z,28.05
2022-11-08T11:56:18.627Z,9.13
2022-11-08T11:58:50.455Z,8.88
2022-11-08T12:01:40.480Z,27.92
2022-11-08T12:04:40.093Z,9.32
2022-11-08T12:07:42.890Z,10.35
2022-11-08T12:10:56.365Z,13.27
2022-11-08T12:13:37.101Z,5.28
2022-11-08T12:16:15.690Z,7.07
2022-11-08T12:19:21.411Z,5.82
2022-11-08T12:21:57.671Z,10.90
2022-11-08T12:24:42.437Z,5.40
2022-11-08T12:27:43.317Z,9.02
2022-11-08T12:30:35.871Z,7.72
2022-11-08T12:33:22.306Z,9.00
2022-11-08T12:36:16.837Z,6.10
2022-11-08T12:38:44.628Z,8.45
2022-11-08T12:41:40.860Z,12.40
2022-11-08T12:44:40.678Z,5.20
2022-11-08T12:47:54.436Z,9.43
2022-11-08T12:50:46.658Z,3.75
2022-11-08T12:53:56.482Z,4.20
2022-11-08T12:56:49.028Z,7.70
2022-11-08T12:59:31.977Z,4.45
2022-11-08T13:02:12.152Z,5.72
2022-11-08T13:05:21.691Z,3.92
2022-11-08T13:08:05.609Z,5.88
2022-11-08T13:11:18.934Z,9.05
2022-11-08T13:14:09.465Z,3.53
2022-11-08T13:16:45.554Z,3.85
2022-11-08T13:19:30.400Z,6.70
2022-11-08T13:21:57.693Z,12.85
2022-11-08T13:24:50.079Z,7.00
2022-11-08T13:27:25.908Z,8.95
2022-11-08T13:30:03.985Z,5.78
2022-11-08T13:32:53.874Z,6.78
2022-11-08T13:35:44.240Z,5.45
2022-11-08T13:38:17.500Z,6.50
2022-11-08T13:41:03.357Z,5.53
2022-11-08T13:43:41.353Z,2.17
2022-11-08T13:46:23.122Z,3.95
2022-11-08T13:49:07.600Z,7.93
2022-11-08T13:51:38.062Z,10.95
2022-11-08T13:54:31.364Z,5.63
2022-11-08T13:57:02.947Z,4.75
2022-11-08T13:59:36.239Z,15.95
2022-11-08T14:04:40.980Z,4.88
2022-11-08T14:07:27.689Z,3.67
2022-11-08T14:10:11.962Z,11.18
2022-11-08T14:12:57.218Z,5.38
2022-11-08T14:15:36.373Z,10.80
2022-11-08T14:18:27.137Z,8.90
2022-11-08T14:20:58.017Z,9.27
2022-11-08T14:23:33.102Z,10.18
2022-11-08T14:26:27.023Z,5.05
2022-11-08T14:28:54.510Z,9.93
2022-11-08T14:31:35.147Z,6.00
2022-11-08T14:34:02.806Z,9.98
2022-11-08T14:36:32.249Z,7.32
2022-11-08T14:39:20.932Z,5.40
2022-11-08T14:41:55.402Z,5.93
2022-11-08T14:44:24.070Z,9.70
2022-11-08T14:46:54.780Z,5.97
2022-11-08T14:49:30.907Z,5.72
2022-11-08T14:52:19.351Z,10.52
2022-11-08T14:55:10.475Z,5.55
2022-11-08T14:57:47.172Z,8.48
2022-11-08T15:00:21.795Z,10.88
2022-11-08T15:02:55.311Z,11.88
2022-11-08T15:07:54.953Z,11.63
2022-11-08T15:10:22.372Z,9.88
2022-11-08T15:12:50.114Z,5.80
2022-11-08T15:15:25.569Z,9.55
2022-11-08T15:18:18.092Z,16.08
2022-11-08T15:21:06.399Z,10.57
2022-11-08T15:23:47.775Z,9.52
2022-11-08T15:26:38.074Z,11.90
2022-11-08T15:29:22.895Z,7.47
2022-11-08T15:32:01.166Z,6.10
2022-11-08T15:34:41.165Z,16.13
2022-11-08T15:37:32.753Z,7.10
2022-11-08T15:40:07.800Z,14.98
2022-11-08T15:42:38.442Z,9.30
2022-11-08T15:45:32.408Z,9.85
2022-11-08T15:48:27.904Z,11.43
2022-11-08T15:51:04.996Z,7.60
2022-11-08T15:53:34.876Z,10.70
2022-11-08T15:56:04.968Z,7.05
2022-11-08T15:58:42.667Z,13.75
2022-11-08T16:01:23.215Z,10.38
2022-11-08T16:04:02.456Z,10.77
2022-11-08T16:06:37.212Z,9.98
2022-11-08T16:09:09.813Z,47.97
2022-11-08T16:11:43.608Z,8.65
2022-11-08T16:14:27.219Z,11.48
2022-11-08T16:16:55.963Z,16.95
2022-11-08T16:19:29.026Z,13.10
2022-11-08T16:21:59.525Z,13.35
2022-11-08T16:24:34.495Z,14.45
2022-11-08T16:27:12.843Z,12.98
2022-11-08T16:29:40.343Z,11.90
2022-11-08T16:32:12.988Z,10.52
2022-11-08T16:34:48.568Z,10.00
2022-11-08T16:37:16.349Z,11.68
2022-11-08T16:39:52.050Z,12.75
2022-11-08T16:42:21.544Z,11.57
2022-11-08T16:44:56.890Z,19.20
2022-11-08T16:47:29.185Z,8.88
2022-11-08T16:50:07.910Z,12.40
2022-11-08T16:52:36.386Z,8.40
2022-11-08T16:55:11.692Z,10.05
2022-11-08T16:57:41.319Z,11.35
2022-11-08T17:00:19.881Z,11.68
2022-11-08T17:02:53.133Z,13.70
2022-11-08T17:05:23.924Z,14.40
2022-11-08T17:07:54.680Z,14.68
2022-11-08T17:10:30.286Z,9.68
2022-11-08T17:12:58.038Z,13.45
2022-11-08T17:15:27.738Z,17.02
2022-11-08T17:17:56.272Z,12.02
2022-11-08T17:20:26.944Z,12.65
2022-11-08T17:22:54.594Z,14.73
2022-11-08T17:25:26.308Z,14.88
2022-11-08T17:27:53.791Z,13.93
2022-11-08T17:30:26.650Z,14.30
2022-11-08T17:32:55.091Z,13.57
2022-11-08T17:35:28.813Z,19.70
2022-11-08T17:37:56.402Z,12.90
2022-11-08T17:40:26.911Z,14.38
2022-11-08T17:42:54.071Z,13.90
2022-11-08T17:45:23.679Z,19.40
2022-11-08T17:47:56.423Z,21.48
2022-11-08T17:50:23.860Z,16.47
2022-11-08T17:52:57.017Z,17.20
2022-11-08T17:55:30.435Z,18.83
2022-11-08T18:00:25.024Z,19.33
2022-11-08T18:02:54.707Z,16.70
2022-11-08T18:05:23.692Z,13.50
2022-11-08T18:07:51.020Z,17.58
2022-11-08T18:10:21.271Z,12.40
2022-11-08T18:12:48.413Z,15.40
2022-11-08T18:15:18.670Z,16.25
2022-11-08T18:17:45.744Z,20.23
2022-11-08T18:20:15.515Z,12.38
2022-11-08T18:22:43.766Z,25.48
2022-11-08T18:25:11.056Z,15.48
2022-11-08T18:27:40.792Z,18.23
2022-11-08T18:30:08.351Z,16.23
2022-11-08T18:32:37.013Z,20.17
2022-11-08T18:35:06.798Z,14.55
2022-11-08T18:37:48.974Z,15.23
2022-11-08T18:40:31.155Z,16.10
2022-11-08T18:42:58.314Z,22.13
2022-11-08T18:45:28.658Z,15.75
2022-11-08T18:48:03.430Z,19.85
2022-11-08T18:50:33.987Z,18.23
2022-11-08T18:53:03.963Z,19.42
2022-11-08T18:55:33.807Z,13.93
2022-11-08T18:58:02.243Z,18.77
2022-11-08T19:00:35.201Z,14.95
2022-11-08T19:03:02.706Z,13.75
2022-11-08T19:05:35.081Z,17.98
2022-11-08T19:08:02.624Z,18.02
2022-11-08T19:10:33.161Z,17.52
2022-11-08T19:13:01.115Z,17.50
2022-11-08T19:15:28.521Z,15.80
2022-11-08T19:17:56.164Z,14.32
2022-11-08T19:20:24.203Z,23.42
2022-11-08T19:22:56.858Z,17.00
2022-11-08T19:25:26.708Z,15.00
2022-11-08T19:28:04.407Z,14.00
2022-11-08T19:30:37.403Z,13.43
2022-11-08T19:33:09.498Z,16.30
2022-11-08T19:35:40.085Z,20.33
2022-11-08T19:38:19.559Z,17.20
2022-11-08T19:40:51.951Z,21.70
2022-11-08T19:43:19.541Z,23.95
2022-11-08T19:45:57.183Z,18.38
2022-11-08T19:48:30.987Z,15.40
2022-11-08T19:51:02.143Z,18.85
2022-11-08T19:53:33.154Z,22.67
2022-11-08T19:56:02.202Z,19.27
2022-11-08T19:58:31.436Z,17.90
2022-11-08T20:01:06.753Z,23.08
2022-11-08T20:03:38.250Z,21.67
2022-11-08T20:06:09.897Z,21.52
2022-11-08T20:08:41.437Z,22.25
2022-11-08T20:11:23.484Z,17.33
2022-11-08T20:13:51.337Z,27.17
2022-11-08T20:16:25.684Z,21.02
2022-11-08T20:19:05.618Z,20.55
2022-11-08T20:21:42.893Z,17.17
2022-11-08T20:24:20.281Z,20.85
2022-11-08T20:26:53.059Z,23.38
2022-11-08T20:29:25.826Z,28.48
2022-11-08T20:32:03.777Z,23.37
2022-11-08T20:34:41.210Z,25.25
2022-11-08T20:37:17.478Z,29.63
2022-11-08T20:39:54.740Z,19.50
2022-11-08T20:42:24.992Z,18.40
2022-11-08T20:44:55.417Z,32.22
2022-11-08T20:47:22.986Z,17.85
2022-11-08T20:49:50.588Z,20.88
2022-11-08T20:52:23.881Z,28.75
2022-11-08T20:54:51.439Z,24.50
2022-11-08T20:57:19.184Z,21.88
2022-11-08T20:59:54.991Z,21.83
2022-11-08T21:02:22.989Z,24.50
2022-11-08T21:04:50.666Z,23.13
2022-11-08T21:08:01.215Z,26.90
2022-11-08T21:10:35.664Z,24.60
2022-11-08T21:13:04.892Z,24.52
2022-11-08T21:15:38.350Z,39.78
2022-11-08T21:18:05.917Z,31.50
2022-11-08T21:20:35.453Z,32.60
2022-11-08T21:23:03.824Z,33.53
2022-11-08T21:25:35.362Z,27.58
2022-11-08T21:28:17.011Z,26.90
2022-11-08T21:30:52.701Z,26.80
2022-11-08T21:33:26.293Z,25.00
2022-11-08T21:35:59.596Z,29.30
2022-11-08T21:38:33.318Z,28.00
2022-11-08T21:41:11.306Z,28.85
2022-11-08T21:43:43.930Z,29.50
2022-11-08T21:46:30.798Z,29.10
2022-11-08T21:49:08.171Z,26.13
2022-11-08T21:51:38.484Z,25.75
2022-11-08T21:54:09.557Z,35.00
2022-11-08T21:56:40.038Z,26.42
2022-11-08T21:59:13.776Z,30.67
2022-11-08T22:01:47.602Z,30.35
2022-11-08T22:04:17.989Z,33.53
2022-11-08T22:06:47.951Z,24.10
2022-11-08T22:09:15.946Z,25.55
2022-11-08T22:11:43.227Z,30.67
2022-11-08T22:14:13.536Z,27.58
2022-11-08T22:16:42.774Z,24.48
2022-11-08T22:19:11.847Z,29.73
2022-11-08T22:21:41.032Z,24.58
2022-11-08T22:24:22.248Z,27.98
2022-11-08T22:26:51.787Z,26.17
2022-11-08T22:29:19.949Z,22.40
2022-11-08T22:31:48.258Z,25.38
2022-11-08T22:34:16.307Z,30.83
2022-11-08T22:36:45.630Z,24.63
2022-11-08T22:39:21.659Z,33.08
2022-11-08T22:41:52.156Z,28.05
2022-11-08T22:44:20.362Z,23.20
2022-11-08T22:46:48.303Z,25.45
2022-11-08T22:49:19.009Z,27.17
2022-11-08T22:51:46.450Z,23.23
2022-11-08T22:54:16.350Z,26.70
2022-11-08T22:56:44.491Z,21.35
2022-11-08T22:59:15.153Z,22.48
2022-11-08T23:01:42.533Z,27.85
2022-11-08T23:04:11.522Z,23.75
2022-11-08T23:06:39.606Z,21.10
2022-11-08T23:09:08.452Z,23.27
2022-11-08T23:11:54.293Z,27.60
2022-11-08T23:14:40.399Z,22.52
2022-11-08T23:17:08.472Z,22.08
2022-11-08T23:19:54.302Z,20.27
2022-11-08T23:22:42.884Z,22.92
2022-11-08T23:25:11.532Z,25.85
2022-11-08T23:27:57.023Z,25.30
2022-11-08T23:30:42.751Z,22.63
2022-11-08T23:33:10.243Z,21.35
2022-11-08T23:35:37.765Z,23.83
2022-11-08T23:38:06.201Z,24.75
2022-11-08T23:40:51.589Z,24.80
2022-11-08T23:43:39.904Z,19.48
2022-11-08T23:46:12.676Z,21.42
2022-11-08T23:48:41.127Z,22.53
2022-11-08T23:51:10.227Z,22.27
2022-11-08T23:53:37.697Z,22.55
2022-11-08T23:56:07.851Z,20.02
2022-11-08T23:58:35.045Z,18.65
